Time;durP1;ratioP1;P1;durP2;ratioP2;P2;SDS_P1;SDS_P2;PMS_P1;PMS_P2;Temp;Humidity;BMP_temperature;BMP_pressure;BME280_temperature;BME280_humidity;BME280_pressure;Samples;Min_cycle;Max_cycle;Signal;HPM_P1;HPM_P2
2022/08/07 00:00:36;;;;;;;2.38;1.40;;;26.20;77.90;;;;;;6276529;22;20050;-79
2022/08/07 00:03:02;;;;;;;1.35;1.25;;;26.20;77.60;;;;;;6249353;22;20004;-79
2022/08/07 00:05:28;;;;;;;1.67;1.27;;;26.40;77.20;;;;;;6276174;22;20010;-78
2022/08/07 00:07:54;;;;;;;2.55;1.58;;;26.50;77.30;;;;;;6276465;22;20000;-79
2022/08/07 00:10:22;;;;;;;3.30;1.75;;;26.50;77.70;;;;;;6274759;22;20343;-79
2022/08/07 00:12:51;;;;;;;2.22;1.50;;;26.40;77.30;;;;;;6274878;22;20429;-79
2022/08/07 00:15:16;;;;;;;2.25;1.60;;;26.30;77.60;;;;;;6274990;22;20536;-79
2022/08/07 00:17:43;;;;;;;1.92;1.05;;;26.40;77.00;;;;;;6275658;22;20024;-80
2022/08/07 00:20:09;;;;;;;1.85;1.48;;;26.20;76.60;;;;;;6275729;22;19999;-79
2022/08/07 00:22:35;;;;;;;1.88;1.27;;;25.90;76.60;;;;;;6275319;22;20002;-78
2022/08/07 00:25:03;;;;;;;2.97;1.50;;;26.00;76.80;;;;;;6247715;22;20007;-78
2022/08/07 00:27:29;;;;;;;2.38;1.45;;;25.80;77.20;;;;;;6274965;22;20004;-79
2022/08/07 00:29:54;;;;;;;3.33;1.48;;;25.70;77.40;;;;;;6275715;22;20311;-80
2022/08/07 00:32:20;;;;;;;2.72;1.17;;;25.70;77.40;;;;;;6276238;22;20042;-80
2022/08/07 00:34:48;;;;;;;2.75;1.40;;;25.80;77.30;;;;;;6275301;22;20003;-80
2022/08/07 00:37:14;;;;;;;2.42;1.58;;;25.80;77.40;;;;;;6274694;22;20003;-80
2022/08/07 00:39:40;;;;;;;2.85;1.13;;;25.90;77.00;;;;;;6275218;22;20426;-79
2022/08/07 00:42:08;;;;;;;2.40;1.30;;;26.00;77.00;;;;;;6247965;22;20000;-80
2022/08/07 00:44:34;;;;;;;1.77;1.30;;;26.00;77.10;;;;;;6274856;22;20004;-80
2022/08/07 00:47:03;;;;;;;1.70;1.20;;;26.00;77.30;;;;;;6274841;22;20006;-80
2022/08/07 00:49:29;;;;;;;1.83;1.38;;;26.20;77.00;;;;;;6274499;22;20039;-78
2022/08/07 00:51:55;;;;;;;2.60;1.30;;;26.30;77.20;;;;;;6275600;22;20003;-82
2022/08/07 00:54:20;;;;;;;5.72;1.80;;;26.20;77.10;;;;;;6275575;22;20004;-80
2022/08/07 00:56:47;;;;;;;1.55;0.95;;;26.20;77.40;;;;;;6275962;22;20016;-80
2022/08/07 00:59:13;;;;;;;2.65;1.50;;;26.20;77.50;;;;;;6275640;22;20525;-80
2022/08/07 01:01:38;;;;;;;1.83;1.65;;;26.30;77.80;;;;;;6247513;22;20023;-79
2022/08/07 01:04:07;;;;;;;2.08;1.50;;;26.10;77.70;;;;;;6275186;22;19995;-80
2022/08/07 01:06:33;;;;;;;1.77;1.60;;;26.00;78.50;;;;;;6275610;22;20006;-80
2022/08/07 01:09:00;;;;;;;3.55;1.75;;;26.00;78.50;;;;;;6274752;22;20949;-79
2022/08/07 01:11:30;;;;;;;2.13;1.70;;;25.80;79.40;;;;;;6275002;22;20060;-79
2022/08/07 01:13:56;;;;;;;2.05;1.02;;;25.60;80.00;;;;;;6275163;22;20691;-79
2022/08/07 01:16:21;;;;;;;1.65;1.20;;;25.70;79.20;;;;;;6275001;22;20002;-78
2022/08/07 01:18:47;;;;;;;6.20;1.40;;;25.80;79.00;;;;;;6275115;22;20057;-79
2022/08/07 01:21:15;;;;;;;3.05;1.50;;;25.50;79.20;;;;;;6275424;22;19996;-79
2022/08/07 01:23:43;;;;;;;2.95;1.75;;;25.50;80.20;;;;;;6275274;22;20441;-79
2022/08/07 01:26:11;;;;;;;2.22;1.63;;;25.70;79.80;;;;;;6274908;22;20011;-79
2022/08/07 01:28:38;;;;;;;4.60;2.33;;;25.60;79.90;;;;;;6275357;22;20011;-79
2022/08/07 01:31:04;;;;;;;2.00;1.50;;;25.70;79.00;;;;;;6275097;22;20004;-80
2022/08/07 01:33:32;;;;;;;3.17;1.58;;;25.30;79.70;;;;;;6275928;22;20324;-80
2022/08/07 01:35:59;;;;;;;3.45;1.50;;;25.30;80.80;;;;;;6276116;22;19996;-80
2022/08/07 01:38:25;;;;;;;1.40;1.20;;;25.20;82.10;;;;;;6248830;22;20007;-80
2022/08/07 01:40:54;;;;;;;4.05;1.98;;;25.30;81.50;;;;;;6275162;22;20003;-81
2022/08/07 01:43:20;;;;;;;3.20;1.60;;;25.40;81.20;;;;;;6275823;22;19996;-81
2022/08/07 01:45:48;;;;;;;2.45;1.63;;;25.70;80.20;;;;;;6275684;22;20007;-80
2022/08/07 01:48:14;;;;;;;3.88;1.80;;;25.80;80.30;;;;;;6275554;22;20235;-80
2022/08/07 01:50:40;;;;;;;3.30;1.50;;;25.70;80.50;;;;;;6275507;22;20437;-80
2022/08/07 01:53:08;;;;;;;3.85;2.00;;;25.70;80.60;;;;;;6275663;22;20027;-80
2022/08/07 01:55:41;;;;;;;3.92;1.77;;;25.80;80.80;;;;;;6275204;22;20027;-80
2022/08/07 01:58:09;;;;;;;1.65;1.55;;;25.70;81.40;;;;;;6275540;22;20003;-80
2022/08/07 02:00:36;;;;;;;1.60;1.40;;;25.70;81.70;;;;;;6248466;22;20326;-80
2022/08/07 02:03:08;;;;;;;2.30;1.58;;;25.80;81.00;;;;;;6277679;22;20023;-79
2022/08/07 02:05:41;;;;;;;4.72;1.88;;;25.80;81.10;;;;;;6277157;22;20014;-77
2022/08/07 02:08:13;;;;;;;2.97;1.60;;;25.80;80.80;;;;;;6277783;22;20057;-80
2022/08/07 02:10:41;;;;;;;1.90;1.35;;;25.70;81.00;;;;;;6277408;22;20024;-80
2022/08/07 02:13:07;;;;;;;1.85;1.63;;;25.80;80.30;;;;;;6277860;22;19999;-80
2022/08/07 02:15:36;;;;;;;1.55;1.30;;;25.90;80.10;;;;;;6277190;22;20003;-79
2022/08/07 02:18:02;;;;;;;1.88;1.48;;;26.00;79.80;;;;;;6277856;22;19999;-80
2022/08/07 02:20:30;;;;;;;2.67;1.77;;;26.20;79.80;;;;;;6277222;22;20000;-80
2022/08/07 02:23:00;;;;;;;2.92;1.88;;;26.20;79.60;;;;;;6249931;22;20011;-79
2022/08/07 02:25:27;;;;;;;;;;;26.00;80.40;;;;;;6278157;22;20418;-79
2022/08/07 02:27:54;;;;;;;2.47;1.20;;;26.10;80.50;;;;;;6277356;22;19939;-79
2022/08/07 02:30:20;;;;;;;3.35;1.50;;;26.00;79.70;;;;;;6277238;22;20011;-78
2022/08/07 02:32:48;;;;;;;4.00;2.15;;;26.10;80.00;;;;;;6277882;22;20289;-79
2022/08/07 02:35:17;;;;;;;3.65;2.08;;;25.90;81.20;;;;;;6249806;22;20008;-78
2022/08/07 02:37:45;;;;;;;5.05;2.03;;;25.60;82.70;;;;;;6277732;22;20423;-79
2022/08/07 02:40:11;;;;;;;4.00;1.55;;;25.30;83.90;;;;;;6277323;22;20000;-79
2022/08/07 02:42:38;;;;;;;2.10;1.80;;;25.40;83.30;;;;;;6277659;22;20031;-78
2022/08/07 02:45:07;;;;;;;2.92;2.05;;;25.20;84.10;;;;;;6277582;22;20008;-78
2022/08/07 02:47:33;;;;;;;1.85;1.42;;;25.10;84.50;;;;;;6277352;22;20418;-78
2022/08/07 02:49:59;;;;;;;2.75;1.63;;;25.20;83.50;;;;;;6277111;22;20008;-78
2022/08/07 02:52:54;;;;;;;3.28;1.75;;;25.40;83.20;;;;;;6225068;22;20011;-79
2022/08/07 02:55:25;;;;;;;1.90;1.13;;;25.40;82.10;;;;;;6277322;22;20007;-79
2022/08/07 02:57:54;;;;;;;2.10;1.52;;;25.50;81.70;;;;;;6277387;22;20004;-78
2022/08/07 03:00:21;;;;;;;5.32;1.40;;;25.50;81.50;;;;;;6249660;22;20008;-79
2022/08/07 03:02:51;;;;;;;0.98;0.90;;;25.60;81.00;;;;;;6276518;22;20497;-79
2022/08/07 03:05:18;;;;;;;2.25;1.05;;;25.70;80.40;;;;;;6276872;22;20008;-79
2022/08/07 03:07:46;;;;;;;3.55;0.82;;;25.80;79.60;;;;;;6276142;22;20007;-79
2022/08/07 03:10:12;;;;;;;1.75;0.90;;;25.70;79.20;;;;;;6262960;22;20073;-78
2022/08/07 03:12:39;;;;;;;1.65;0.93;;;25.70;79.00;;;;;;6275741;22;20049;-79
2022/08/07 03:15:06;;;;;;;2.88;1.75;;;25.70;78.50;;;;;;6276510;22;19999;-79
2022/08/07 03:17:33;;;;;;;2.25;0.90;;;25.70;79.80;;;;;;6276651;22;20052;-78
2022/08/07 03:20:00;;;;;;;4.85;1.67;;;25.60;79.80;;;;;;6277206;22;20068;-80
2022/08/07 03:22:27;;;;;;;2.95;1.30;;;25.40;82.50;;;;;;6276422;22;20004;-80
2022/08/07 03:24:52;;;;;;;3.80;1.35;;;25.30;81.90;;;;;;6276018;22;20026;-80
2022/08/07 03:27:19;;;;;;;2.35;1.08;;;25.40;82.50;;;;;;6275925;22;20007;-79
2022/08/07 03:29:50;;;;;;;1.52;1.00;;;25.40;83.30;;;;;;6274775;22;20007;-80
2022/08/07 03:32:21;;;;;;;10.63;1.52;;;25.50;83.00;;;;;;6276354;22;20003;-80
2022/08/07 03:34:50;;;;;;;1.65;1.10;;;25.30;83.70;;;;;;6276201;22;20000;-80
2022/08/07 03:37:18;;;;;;;3.60;1.30;;;25.40;83.30;;;;;;6276452;22;19996;-79
2022/08/07 03:39:46;;;;;;;2.22;1.40;;;25.40;83.50;;;;;;6275815;22;20444;-78
2022/08/07 03:42:13;;;;;;;2.08;1.20;;;24.90;83.70;;;;;;6276610;22;20000;-78
2022/08/07 03:44:40;;;;;;;1.27;1.13;;;24.60;85.30;;;;;;6276605;22;20031;-78
2022/08/07 03:47:06;;;;;;;2.28;1.13;;;24.80;85.70;;;;;;6276495;22;20053;-77
2022/08/07 03:49:33;;;;;;;2.00;1.27;;;24.50;86.60;;;;;;6276561;22;20008;-77
2022/08/07 03:52:00;;;;;;;1.38;0.98;;;24.50;87.30;;;;;;6276161;22;20031;-77
2022/08/07 03:54:26;;;;;;;3.60;1.40;;;24.70;86.20;;;;;;6275939;22;20028;-78
2022/08/07 03:56:54;;;;;;;2.28;1.30;;;24.40;87.00;;;;;;6276396;22;20022;-79
2022/08/07 03:59:20;;;;;;;2.05;1.35;;;24.00;87.60;;;;;;6276349;22;19999;-78
2022/08/07 04:01:47;;;;;;;2.78;1.40;;;23.80;89.50;;;;;;6276269;22;20006;-78
2022/08/07 04:04:16;;;;;;;1.88;1.52;;;23.80;89.90;;;;;;6276497;22;20003;-78
2022/08/07 04:06:43;;;;;;;1.70;1.20;;;23.90;89.70;;;;;;6276763;22;20077;-77
2022/08/07 04:09:10;;;;;;;3.03;1.20;;;24.10;89.10;;;;;;6275834;22;20007;-78
2022/08/07 04:11:36;;;;;;;3.42;1.60;;;24.30;88.60;;;;;;6275657;22;20003;-78
2022/08/07 04:14:03;;;;;;;1.35;1.05;;;24.00;88.60;;;;;;6275742;22;20004;-78
2022/08/07 04:16:29;;;;;;;2.42;1.50;;;24.10;88.90;;;;;;6275995;22;20007;-79
2022/08/07 04:18:55;;;;;;;2.25;1.25;;;24.30;89.10;;;;;;6275799;22;19995;-79
2022/08/07 04:21:21;;;;;;;3.47;1.38;;;24.30;88.60;;;;;;6275524;22;20000;-78
2022/08/07 04:23:47;;;;;;;2.97;1.55;;;24.00;89.20;;;;;;6276019;22;20031;-78
2022/08/07 04:26:13;;;;;;;3.15;1.30;;;24.00;89.80;;;;;;6275776;22;19999;-78
2022/08/07 04:28:40;;;;;;;2.65;1.60;;;24.20;89.70;;;;;;6276406;22;20015;-80
2022/08/07 04:31:06;;;;;;;1.70;1.40;;;24.10;90.10;;;;;;6276285;22;20449;-80
2022/08/07 04:33:33;;;;;;;3.67;1.30;;;24.10;89.90;;;;;;6276459;22;20461;-79
2022/08/07 04:35:59;;;;;;;1.67;1.30;;;24.30;90.10;;;;;;6276359;22;20383;-79
2022/08/07 04:38:26;;;;;;;1.95;1.20;;;24.40;89.50;;;;;;6276016;22;20053;-76
2022/08/07 04:40:51;;;;;;;7.80;1.33;;;24.40;89.20;;;;;;6274980;22;20000;-77
2022/08/07 04:43:30;;;;;;;2.85;1.80;;;24.50;88.80;;;;;;6275643;22;19999;-76
2022/08/07 04:46:02;;;;;;;1.80;1.40;;;24.50;88.50;;;;;;6274607;22;20023;-77
2022/08/07 04:48:36;;;;;;;2.10;0.98;;;24.50;88.80;;;;;;6274596;22;20364;-77
2022/08/07 04:51:05;;;;;;;1.50;1.10;;;24.60;88.80;;;;;;6274781;22;20075;-77
2022/08/07 04:53:37;;;;;;;1.50;1.40;;;24.40;89.00;;;;;;6272881;22;20027;-79
2022/08/07 04:56:15;;;;;;;2.60;1.77;;;24.50;88.70;;;;;;6246667;22;20330;-74
2022/08/07 04:59:09;;;;;;;1.67;1.30;;;24.60;88.80;;;;;;6273721;22;20650;-74
2022/08/07 05:01:42;;;;;;;2.75;1.20;;;24.80;90.00;;;;;;6273876;22;20034;-73
2022/08/07 05:04:20;;;;;;;1.80;1.30;;;24.90;89.50;;;;;;6274713;22;20000;-73
2022/08/07 05:06:59;;;;;;;1.42;1.02;;;25.00;89.50;;;;;;6246410;22;20342;-78
2022/08/07 05:09:32;;;;;;;2.45;1.70;;;24.90;87.50;;;;;;6273641;22;20012;-77
2022/08/07 05:12:03;;;;;;;3.85;1.40;;;24.80;86.10;;;;;;6274851;22;20003;-77
2022/08/07 05:14:43;;;;;;;1.80;1.23;;;24.50;86.70;;;;;;6274756;22;20007;-78
2022/08/07 05:17:12;;;;;;;1.85;1.20;;;24.50;88.40;;;;;;6273615;22;19996;-78
2022/08/07 05:19:43;;;;;;;1.98;1.55;;;24.50;88.70;;;;;;6274599;22;19996;-77
2022/08/07 05:22:10;;;;;;;2.65;1.20;;;24.50;89.10;;;;;;6273340;22;20302;-78
2022/08/07 05:24:37;;;;;;;2.35;1.15;;;24.50;89.80;;;;;;6274204;22;19999;-78
2022/08/07 05:27:06;;;;;;;1.20;1.00;;;24.50;89.00;;;;;;6274117;22;20110;-78
2022/08/07 05:29:37;;;;;;;1.95;1.67;;;24.70;89.70;;;;;;6274259;22;20027;-78
2022/08/07 05:32:07;;;;;;;3.55;1.67;;;24.40;89.50;;;;;;6274538;22;20007;-78
2022/08/07 05:34:35;;;;;;;3.10;1.88;;;24.40;90.00;;;;;;6274628;22;20015;-78
2022/08/07 05:37:03;;;;;;;2.47;1.55;;;24.30;89.80;;;;;;6272637;22;20449;-73
2022/08/07 05:39:29;;;;;;;1.63;1.52;;;24.30;89.50;;;;;;6274877;22;19999;-73
2022/08/07 05:41:55;;;;;;;2.05;1.50;;;24.30;89.20;;;;;;6247314;22;20370;-73
2022/08/07 05:44:21;;;;;;;3.28;1.20;;;24.40;89.40;;;;;;6274920;22;20007;-73
2022/08/07 05:46:49;;;;;;;1.60;1.50;;;24.50;88.80;;;;;;6274267;22;19999;-73
2022/08/07 05:49:16;;;;;;;1.58;1.40;;;24.60;87.30;;;;;;6273443;22;20074;-73
2022/08/07 05:51:44;;;;;;;3.08;1.95;;;24.60;87.80;;;;;;6273276;22;20072;-72
2022/08/07 05:54:10;;;;;;;5.25;1.67;;;24.60;88.30;;;;;;6273069;22;20006;-72
2022/08/07 05:56:39;;;;;;;2.25;1.60;;;24.60;88.70;;;;;;6274062;22;20308;-77
2022/08/07 05:59:11;;;;;;;3.55;1.67;;;24.50;89.10;;;;;;6273457;22;20372;-76
2022/08/07 06:01:39;;;;;;;7.50;2.15;;;24.40;89.50;;;;;;6273471;22;20023;-77
2022/08/07 06:04:07;;;;;;;2.60;1.90;;;24.50;90.20;;;;;;6275497;22;20031;-76
2022/08/07 06:06:33;;;;;;;3.67;1.85;;;24.50;89.60;;;;;;6275714;22;20011;-76
2022/08/07 06:09:00;;;;;;;1.52;1.42;;;24.60;88.90;;;;;;6245457;22;20501;-77
2022/08/07 06:11:26;;;;;;;2.60;1.73;;;24.70;88.30;;;;;;6274376;22;20012;-77
2022/08/07 06:13:52;;;;;;;2.13;1.50;;;24.80;87.70;;;;;;6273544;22;20011;-77
2022/08/07 06:16:21;;;;;;;1.75;1.30;;;24.80;87.20;;;;;;6274333;22;20071;-76
2022/08/07 06:18:47;;;;;;;3.05;1.35;;;24.90;85.60;;;;;;6274313;22;20026;-77
2022/08/07 06:21:14;;;;;;;3.00;1.70;;;25.00;86.70;;;;;;6273439;22;20329;-76
2022/08/07 06:23:40;;;;;;;2.58;1.23;;;25.10;85.30;;;;;;6274336;22;20022;-76
2022/08/07 06:26:10;;;;;;;1.98;1.45;;;25.30;86.80;;;;;;6274395;22;20000;-76
2022/08/07 06:28:46;;;;;;;;;;;25.40;86.20;;;;;;6274821;22;20027;-76
2022/08/07 06:31:12;;;;;;;1.95;1.00;;;25.60;85.20;;;;;;6273584;22;19922;-76
2022/08/07 06:33:37;;;;;;;1.48;0.93;;;25.60;84.20;;;;;;6273879;22;20399;-76
2022/08/07 06:36:03;;;;;;;3.35;1.50;;;25.80;84.30;;;;;;6274463;22;20410;-76
2022/08/07 06:38:29;;;;;;;2.90;1.60;;;25.70;83.00;;;;;;6274038;22;20003;-77
2022/08/07 06:40:56;;;;;;;3.10;1.50;;;25.70;83.50;;;;;;6274495;22;20075;-77
2022/08/07 06:43:23;;;;;;;1.92;1.40;;;25.80;83.60;;;;;;6274241;22;20046;-74
2022/08/07 06:45:49;;;;;;;8.00;1.77;;;25.80;83.20;;;;;;6274560;22;20004;-75
2022/08/07 06:48:15;;;;;;;1.52;1.20;;;25.80;82.80;;;;;;6275591;22;20422;-74
2022/08/07 06:50:42;;;;;;;2.30;1.10;;;25.90;83.20;;;;;;6276312;22;19999;-74
2022/08/07 06:53:09;;;;;;;0.90;0.90;;;26.10;83.30;;;;;;6275195;22;20010;-74
2022/08/07 06:55:35;;;;;;;1.65;1.25;;;26.20;83.40;;;;;;6275840;22;20030;-74
2022/08/07 06:58:08;;;;;;;1.95;1.25;;;26.30;83.00;;;;;;6275694;22;20006;-74
2022/08/07 07:00:36;;;;;;;1.90;1.23;;;26.40;82.90;;;;;;6276229;22;20034;-74
2022/08/07 07:03:03;;;;;;;2.35;1.23;;;26.50;83.30;;;;;;6276009;22;20003;-74
2022/08/07 07:05:29;;;;;;;3.20;1.67;;;26.60;83.20;;;;;;6276617;22;20010;-74
2022/08/07 07:07:55;;;;;;;2.20;1.38;;;26.50;81.60;;;;;;6275588;22;20003;-74
2022/08/07 07:10:34;;;;;;;2.13;1.42;;;26.60;82.20;;;;;;6273840;22;20020;-74
2022/08/07 07:13:16;;;;;;;1.23;1.10;;;26.60;82.30;;;;;;6275111;22;20426;-74
2022/08/07 07:15:47;;;;;;;4.53;1.58;;;26.70;82.40;;;;;;6275648;22;20010;-74
2022/08/07 07:18:19;;;;;;;1.70;1.33;;;26.70;81.90;;;;;;6275511;22;20004;-74
2022/08/07 07:20:54;;;;;;;2.33;1.52;;;26.70;82.50;;;;;;6275977;22;20003;-74
2022/08/07 07:23:20;;;;;;;1.60;1.50;;;26.80;82.30;;;;;;6275032;22;20028;-75
2022/08/07 07:25:49;;;;;;;4.82;1.77;;;26.80;81.80;;;;;;6275683;22;20000;-74
2022/08/07 07:28:23;;;;;;;2.97;1.45;;;26.90;80.90;;;;;;6275353;22;20000;-74
2022/08/07 07:30:58;;;;;;;3.30;1.48;;;26.90;81.00;;;;;;6248198;22;20090;-74
2022/08/07 07:33:27;;;;;;;1.73;1.42;;;26.90;80.30;;;;;;6275106;22;20012;-74
2022/08/07 07:35:54;;;;;;;1.80;1.30;;;26.90;78.70;;;;;;6275116;22;20608;-75
2022/08/07 07:38:23;;;;;;;2.10;1.20;;;26.90;79.00;;;;;;6275847;22;20407;-75
2022/08/07 07:40:50;;;;;;;1.67;1.40;;;26.90;78.70;;;;;;6275651;22;20283;-75
2022/08/07 07:43:18;;;;;;;1.25;1.15;;;27.00;78.30;;;;;;6273241;22;20078;-75
2022/08/07 07:45:46;;;;;;;1.42;1.33;;;27.00;78.40;;;;;;6246285;22;20014;-73
2022/08/07 07:48:15;;;;;;;2.30;1.13;;;27.10;78.70;;;;;;6274024;22;20061;-74
2022/08/07 07:50:44;;;;;;;1.17;1.08;;;27.30;79.10;;;;;;6275123;22;20007;-73
2022/08/07 07:53:11;;;;;;;1.38;1.23;;;27.40;78.50;;;;;;6276069;22;20007;-73
2022/08/07 07:55:37;;;;;;;1.60;1.50;;;27.50;78.80;;;;;;6275399;22;20008;-73
2022/08/07 07:58:04;;;;;;;1.83;1.52;;;27.60;77.90;;;;;;6275074;22;20302;-73
2022/08/07 08:00:32;;;;;;;2.45;1.42;;;27.70;77.80;;;;;;6275430;22;20023;-74
2022/08/07 08:03:23;;;;;;;3.58;1.65;;;27.70;77.70;;;;;;6275046;22;20007;-74
2022/08/07 08:05:50;;;;;;;1.73;1.60;;;27.70;75.30;;;;;;6270232;22;20011;-73
2022/08/07 08:08:16;;;;;;;1.75;1.45;;;27.70;76.90;;;;;;6274444;22;20342;-74
2022/08/07 08:10:43;;;;;;;1.58;1.10;;;27.70;77.10;;;;;;6274736;22;20461;-74
2022/08/07 08:13:10;;;;;;;2.88;1.50;;;27.70;77.10;;;;;;6274656;22;20003;-74
2022/08/07 08:15:38;;;;;;;1.67;1.05;;;27.80;77.50;;;;;;6274578;22;20071;-74
2022/08/07 08:18:08;;;;;;;1.58;1.40;;;27.80;77.60;;;;;;6274917;22;20006;-74
2022/08/07 08:20:34;;;;;;;;;;;27.80;78.50;;;;;;6274634;22;20000;-73
2022/08/07 08:28:36;;;;;;;4.30;2.05;;;27.50;80.10;;;;;;6275239;22;20633;-73
2022/08/07 08:31:04;;;;;;;5.38;1.98;;;27.40;80.70;;;;;;6273757;22;20034;-75
2022/08/07 08:33:34;;;;;;;2.45;1.80;;;27.10;81.30;;;;;;6274842;22;20010;-75
2022/08/07 08:36:01;;;;;;;5.28;2.35;;;27.10;81.70;;;;;;6274760;22;20027;-76
2022/08/07 08:38:32;;;;;;;3.08;1.98;;;27.20;84.20;;;;;;6274113;22;20027;-76
2022/08/07 08:41:16;;;;;;;6.32;2.17;;;27.10;84.00;;;;;;6274832;22;19996;-76
2022/08/07 08:43:51;;;;;;;2.25;1.90;;;27.10;85.10;;;;;;6273282;22;20000;-75
2022/08/07 08:46:30;;;;;;;2.60;2.00;;;26.90;84.40;;;;;;6274786;22;19996;-75
2022/08/07 08:49:08;;;;;;;3.58;1.75;;;27.00;85.40;;;;;;6275124;22;19999;-76
2022/08/07 08:52:04;;;;;;;2.33;1.90;;;27.00;86.90;;;;;;6274959;22;20438;-79
2022/08/07 08:57:12;;;;;;;4.80;2.00;;;26.90;88.00;;;;;;6335582;22;20019;-82
2022/08/07 09:00:00;;;;;;;4.60;3.03;;;27.00;88.50;;;;;;6335769;22;19999;-82
2022/08/07 09:02:38;;;;;;;5.22;2.38;;;27.00;89.30;;;;;;6308600;22;20399;-82
2022/08/07 09:05:31;;;;;;;3.72;2.20;;;26.90;89.20;;;;;;6335351;22;20007;-78
2022/08/07 09:08:15;;;;;;;5.50;2.20;;;27.00;88.70;;;;;;6335385;22;20003;-84
2022/08/07 09:10:45;;;;;;;2.67;2.08;;;27.10;89.90;;;;;;6336201;22;20019;-84
2022/08/07 09:13:42;;;;;;;3.42;2.30;;;27.20;89.60;;;;;;6334613;22;20433;-83
2022/08/07 09:16:33;;;;;;;4.70;2.40;;;27.30;88.60;;;;;;6307416;22;20003;-84
2022/08/07 09:19:04;;;;;;;3.17;2.35;;;27.40;87.20;;;;;;6307081;22;20069;-83
2022/08/07 09:21:30;;;;;;;2.30;2.10;;;27.40;87.70;;;;;;6335944;22;20002;-83
2022/08/07 09:24:07;;;;;;;2.05;1.80;;;27.50;87.10;;;;;;6307866;22;20310;-83
2022/08/07 09:26:59;;;;;;;2.83;2.20;;;27.50;86.90;;;;;;6335308;22;20014;-83
2022/08/07 09:29:52;;;;;;;2.08;1.88;;;27.60;86.50;;;;;;6335704;22;20006;-83
2022/08/07 09:32:27;;;;;;;1.88;1.77;;;27.70;85.70;;;;;;6335691;22;20014;-83
2022/08/07 09:35:12;;;;;;;2.92;2.63;;;27.80;85.40;;;;;;6306908;22;20497;-84
2022/08/07 09:38:10;;;;;;;3.83;2.00;;;27.90;85.90;;;;;;6334592;22;20077;-81
2022/08/07 09:41:07;;;;;;;2.20;1.88;;;28.00;86.70;;;;;;6307857;22;20026;-84
2022/08/07 09:43:57;;;;;;;5.30;3.70;;;28.00;85.80;;;;;;6335511;22;20002;-83
2022/08/07 09:47:07;;;;;;;5.82;3.47;;;28.00;84.80;;;;;;6336096;22;20014;-80
2022/08/07 09:49:55;;;;;;;2.95;2.60;;;28.00;84.80;;;;;;6297654;22;20593;-83
2022/08/07 09:52:33;;;;;;;5.55;2.78;;;28.00;84.70;;;;;;6332409;22;20085;-84
2022/08/07 09:55:16;;;;;;;4.45;3.22;;;27.90;84.60;;;;;;6333590;22;20007;-84
2022/08/07 09:58:13;;;;;;;4.72;3.53;;;27.90;85.50;;;;;;6337369;22;20082;-84
2022/08/07 10:01:00;;;;;;;8.80;3.08;;;27.80;84.40;;;;;;6337413;22;20424;-84
2022/08/07 10:03:39;;;;;;;3.10;2.33;;;27.60;82.80;;;;;;6337208;22;20324;-84
2022/08/07 10:06:30;;;;;;;4.35;2.58;;;27.60;84.30;;;;;;6336574;22;20022;-84
2022/08/07 10:09:15;;;;;;;3.42;2.25;;;27.60;83.40;;;;;;6310389;22;20434;-84
2022/08/07 10:11:50;;;;;;;2.08;1.73;;;27.60;82.90;;;;;;6338186;22;20444;-84
2022/08/07 10:14:41;;;;;;;3.17;2.70;;;27.70;82.80;;;;;;6337441;22;20067;-84
2022/08/07 10:17:39;;;;;;;2.58;1.83;;;27.70;79.50;;;;;;6338029;22;20007;-84
2022/08/07 10:20:20;;;;;;;2.05;1.50;;;27.70;81.20;;;;;;6310300;22;20328;-84
2022/08/07 10:22:49;;;;;;;4.00;2.83;;;27.80;81.50;;;;;;6338213;22;20328;-84
2022/08/07 10:25:42;;;;;;;4.03;3.20;;;27.90;81.60;;;;;;6339429;22;20026;-84
2022/08/07 10:28:23;;;;;;;5.03;2.70;;;27.90;79.20;;;;;;6339220;22;20006;-84
2022/08/07 10:31:07;;;;;;;2.22;1.90;;;27.90;79.90;;;;;;6339574;22;20065;-84
2022/08/07 10:33:47;;;;;;;4.43;2.83;;;28.00;80.20;;;;;;6339267;22;20200;-84
2022/08/07 10:36:36;;;;;;;3.35;2.50;;;28.20;79.50;;;;;;6339845;22;20007;-84
2022/08/07 10:39:16;;;;;;;6.25;1.90;;;28.10;77.70;;;;;;6339601;22;20002;-84
2022/08/07 10:41:50;;;;;;;2.25;1.95;;;28.20;77.90;;;;;;6339497;22;20003;-84
2022/08/07 10:44:37;;;;;;;4.25;3.30;;;28.30;78.30;;;;;;6338637;22;20436;-84
2022/08/07 10:47:22;;;;;;;4.28;2.92;;;28.40;77.10;;;;;;6339777;22;20083;-84
2022/08/07 10:50:02;;;;;;;2.88;2.13;;;28.40;76.40;;;;;;6312017;22;20002;-84
2022/08/07 10:52:37;;;;;;;3.03;2.03;;;28.50;77.00;;;;;;6339637;22;20022;-84
2022/08/07 10:55:29;;;;;;;2.88;1.90;;;28.60;77.20;;;;;;6338450;22;20003;-85
2022/08/07 10:57:58;;;;;;;1.75;1.65;;;28.60;75.50;;;;;;6310800;22;20006;-84
2022/08/07 11:00:30;;;;;;;2.33;2.00;;;28.60;75.90;;;;;;6339119;22;20412;-84
2022/08/07 11:02:59;;;;;;;2.20;1.85;;;28.50;75.80;;;;;;6339502;22;20358;-85
2022/08/07 11:05:34;;;;;;;1.75;1.50;;;28.50;75.10;;;;;;6339236;22;20006;-84
2022/08/07 11:08:25;;;;;;;3.75;2.60;;;28.50;75.80;;;;;;6339585;22;20003;-85
2022/08/07 11:11:04;;;;;;;3.30;2.30;;;28.40;74.40;;;;;;6339411;22;20014;-85
2022/08/07 11:13:39;;;;;;;3.95;2.55;;;28.00;74.20;;;;;;6339033;22;20002;-85
2022/08/07 11:16:15;;;;;;;3.28;2.63;;;28.00;75.30;;;;;;6338953;22;20025;-84
2022/08/07 11:18:45;;;;;;;2.42;1.83;;;27.90;76.10;;;;;;6339639;22;20003;-84
2022/08/07 11:21:19;;;;;;;3.23;2.00;;;27.90;76.60;;;;;;6339681;22;19995;-84
2022/08/07 11:23:48;;;;;;;3.97;2.35;;;27.90;78.00;;;;;;6339014;22;19998;-84
2022/08/07 11:26:27;;;;;;;2.40;1.77;;;28.00;79.10;;;;;;6311210;22;20379;-84
2022/08/07 11:29:02;;;;;;;5.53;2.17;;;28.00;80.70;;;;;;6339171;22;19999;-84
2022/08/07 11:31:42;;;;;;;3.42;2.20;;;28.00;82.20;;;;;;6339633;22;19995;-84
2022/08/07 11:34:35;;;;;;;2.47;1.90;;;28.00;82.80;;;;;;6338731;22;20073;-83
2022/08/07 11:37:16;;;;;;;3.00;2.22;;;28.10;83.70;;;;;;6339031;22;19998;-84
2022/08/07 11:40:00;;;;;;;9.20;3.05;;;28.00;82.80;;;;;;6339133;22;20029;-84
2022/08/07 11:42:45;;;;;;;2.85;2.25;;;27.80;81.50;;;;;;6338707;22;20048;-84
2022/08/07 11:45:24;;;;;;;2.90;2.60;;;27.80;83.10;;;;;;6338375;22;20416;-84
2022/08/07 11:48:15;;;;;;;5.05;2.50;;;27.90;82.90;;;;;;6338078;22;20045;-84
2022/08/07 11:51:07;;;;;;;3.50;2.58;;;28.10;82.60;;;;;;6338801;22;20328;-84
2022/08/07 11:53:47;;;;;;;3.90;3.28;;;28.30;82.40;;;;;;6339676;22;20026;-83
2022/08/07 11:56:39;;;;;;;4.70;2.80;;;28.40;81.10;;;;;;6292948;22;20098;-84
2022/08/07 11:59:26;;;;;;;3.72;2.60;;;28.40;80.80;;;;;;6307891;22;20010;-84
2022/08/07 12:02:29;;;;;;;3.38;2.67;;;28.50;81.00;;;;;;6307794;22;20443;-84
2022/08/07 12:05:31;;;;;;;2.90;2.60;;;28.30;81.10;;;;;;6307382;22;20078;-84
2022/08/07 12:08:07;;;;;;;3.85;1.95;;;28.30;81.60;;;;;;6307555;22;20425;-84
2022/08/07 12:10:38;;;;;;;2.20;2.00;;;28.30;81.20;;;;;;6307396;22;20023;-84
2022/08/07 12:13:31;;;;;;;2.55;2.35;;;28.30;81.60;;;;;;6307409;22;20010;-84
2022/08/07 12:16:03;;;;;;;3.53;2.65;;;28.30;82.60;;;;;;6258741;22;20014;-84
2022/08/07 12:18:45;;;;;;;3.53;2.38;;;28.10;81.50;;;;;;6307697;22;19999;-84
2022/08/07 12:21:27;;;;;;;3.78;2.83;;;28.00;82.10;;;;;;6307776;22;19999;-83
2022/08/07 12:23:58;;;;;;;4.45;3.03;;;27.90;82.80;;;;;;6307000;22;20007;-83
2022/08/07 12:26:39;;;;;;;3.53;2.53;;;27.80;83.30;;;;;;6307010;22;20404;-84
2022/08/07 12:29:32;;;;;;;2.35;2.15;;;27.80;83.70;;;;;;6307570;22;20003;-84
2022/08/07 12:32:08;;;;;;;2.80;2.50;;;27.70;83.60;;;;;;6307819;22;20429;-84
2022/08/07 12:34:39;;;;;;;2.30;2.10;;;27.70;84.00;;;;;;6306961;22;20003;-84
2022/08/07 12:37:09;;;;;;;2.70;2.40;;;27.60;83.80;;;;;;6307196;22;19999;-84
2022/08/07 12:39:38;;;;;;;2.95;2.47;;;27.60;83.70;;;;;;6306639;22;20044;-84
2022/08/07 12:42:06;;;;;;;2.97;2.42;;;27.40;83.90;;;;;;6306581;22;20002;-84
2022/08/07 12:44:33;;;;;;;3.33;3.03;;;27.40;84.80;;;;;;6306753;22;20070;-84
2022/08/07 12:47:16;;;;;;;9.13;3.83;;;27.20;85.20;;;;;;6279191;22;20059;-84
2022/08/07 12:50:01;;;;;;;3.22;2.70;;;27.20;85.20;;;;;;6307515;22;20003;-84
2022/08/07 12:52:35;;;;;;;3.95;3.10;;;27.20;85.20;;;;;;6307237;22;20000;-84
2022/08/07 12:55:16;;;;;;;3.47;3.17;;;27.10;85.50;;;;;;6309574;22;20007;-84
2022/08/07 12:57:45;;;;;;;3.58;3.28;;;27.10;85.70;;;;;;6336660;22;20030;-85
2022/08/07 13:00:12;;;;;;;2.83;2.53;;;27.10;86.60;;;;;;6337976;22;20069;-84
2022/08/07 13:03:11;;;;;;;3.25;3.00;;;27.00;86.20;;;;;;6339059;22;20051;-84
2022/08/07 13:06:07;;;;;;;4.65;3.90;;;27.00;86.60;;;;;;6310265;22;20007;-84
2022/08/07 13:08:54;;;;;;;3.17;2.88;;;27.10;86.30;;;;;;6338386;22;20079;-84
2022/08/07 13:11:36;;;;;;;3.50;3.20;;;27.10;86.40;;;;;;6338975;22;19998;-85
2022/08/07 13:14:27;;;;;;;3.00;2.63;;;27.30;86.60;;;;;;6337626;22;20314;-84
2022/08/07 13:17:10;;;;;;;2.85;2.60;;;27.40;86.10;;;;;;6338040;22;20481;-85
2022/08/07 13:20:01;;;;;;;2.88;2.65;;;27.60;85.80;;;;;;6310456;22;20374;-85
2022/08/07 13:23:05;;;;;;;3.30;2.65;;;27.80;84.90;;;;;;6337906;22;20048;-84
2022/08/07 13:25:39;;;;;;;3.92;3.10;;;28.00;83.50;;;;;;6319422;22;20003;-84